sensor_id;sensor_type;location;lat;lon;timestamp;temperature;humidity
48328;DHT22;34136;51.022;7.082;2022-07-10T00:00:30;15.80;10.20
48328;DHT22;34136;51.022;7.082;2022-07-10T00:03:17;15.90;10.00
48328;DHT22;34136;51.022;7.082;2022-07-10T00:06:03;15.90;9.70
48328;DHT22;34136;51.022;7.082;2022-07-10T00:08:50;16.00;9.80
48328;DHT22;34136;51.022;7.082;2022-07-10T00:11:36;15.80;10.40
48328;DHT22;34136;51.022;7.082;2022-07-10T00:14:23;15.70;10.70
48328;DHT22;34136;51.022;7.082;2022-07-10T00:17:09;15.70;11.10
48328;DHT22;34136;51.022;7.082;2022-07-10T00:19:56;15.70;11.10
48328;DHT22;34136;51.022;7.082;2022-07-10T00:22:42;15.60;11.50
48328;DHT22;34136;51.022;7.082;2022-07-10T00:25:29;15.60;11.70
48328;DHT22;34136;51.022;7.082;2022-07-10T00:28:15;15.60;11.80
48328;DHT22;34136;51.022;7.082;2022-07-10T00:31:02;15.50;12.10
48328;DHT22;34136;51.022;7.082;2022-07-10T00:33:48;15.50;12.50
48328;DHT22;34136;51.022;7.082;2022-07-10T00:36:35;15.50;12.60
48328;DHT22;34136;51.022;7.082;2022-07-10T00:39:21;15.50;13.10
48328;DHT22;34136;51.022;7.082;2022-07-10T00:42:12;15.40;13.30
48328;DHT22;34136;51.022;7.082;2022-07-10T00:44:58;15.40;13.10
48328;DHT22;34136;51.022;7.082;2022-07-10T00:47:44;15.40;13.40
48328;DHT22;34136;51.022;7.082;2022-07-10T00:50:31;15.30;13.40
48328;DHT22;34136;51.022;7.082;2022-07-10T00:53:18;15.10;14.30
48328;DHT22;34136;51.022;7.082;2022-07-10T00:56:06;15.00;15.10
48328;DHT22;34136;51.022;7.082;2022-07-10T00:58:53;15.10;14.80
48328;DHT22;34136;51.022;7.082;2022-07-10T01:01:39;15.00;14.90
48328;DHT22;34136;51.022;7.082;2022-07-10T01:04:26;14.90;15.10
48328;DHT22;34136;51.022;7.082;2022-07-10T01:07:12;14.80;15.70
48328;DHT22;34136;51.022;7.082;2022-07-10T01:09:59;14.90;16.00
48328;DHT22;34136;51.022;7.082;2022-07-10T01:12:45;14.80;15.90
48328;DHT22;34136;51.022;7.082;2022-07-10T01:15:32;14.80;15.80
48328;DHT22;34136;51.022;7.082;2022-07-10T01:18:19;14.80;15.80
48328;DHT22;34136;51.022;7.082;2022-07-10T01:21:06;14.80;15.60
48328;DHT22;34136;51.022;7.082;2022-07-10T01:23:52;14.70;15.60
48328;DHT22;34136;51.022;7.082;2022-07-10T01:26:38;14.70;15.80
48328;DHT22;34136;51.022;7.082;2022-07-10T01:29:25;14.70;15.80
48328;DHT22;34136;51.022;7.082;2022-07-10T01:32:12;14.70;15.30
48328;DHT22;34136;51.022;7.082;2022-07-10T01:34:58;14.60;16.00
48328;DHT22;34136;51.022;7.082;2022-07-10T01:37:45;14.60;16.00
48328;DHT22;34136;51.022;7.082;2022-07-10T01:40:31;14.50;16.20
48328;DHT22;34136;51.022;7.082;2022-07-10T01:43:17;14.60;15.80
48328;DHT22;34136;51.022;7.082;2022-07-10T01:46:04;14.70;15.40
48328;DHT22;34136;51.022;7.082;2022-07-10T01:48:50;14.70;15.10
48328;DHT22;34136;51.022;7.082;2022-07-10T01:51:36;14.80;14.60
48328;DHT22;34136;51.022;7.082;2022-07-10T01:54:23;14.70;15.30
48328;DHT22;34136;51.022;7.082;2022-07-10T01:57:09;14.70;15.50
48328;DHT22;34136;51.022;7.082;2022-07-10T01:59:56;14.70;15.80
48328;DHT22;34136;51.022;7.082;2022-07-10T02:02:42;14.80;15.40
48328;DHT22;34136;51.022;7.082;2022-07-10T02:05:28;14.90;14.80
48328;DHT22;34136;51.022;7.082;2022-07-10T02:08:14;14.90;14.70
48328;DHT22;34136;51.022;7.082;2022-07-10T02:11:01;14.90;14.90
48328;DHT22;34136;51.022;7.082;2022-07-10T02:13:47;14.80;15.50
48328;DHT22;34136;51.022;7.082;2022-07-10T02:16:34;14.80;15.30
48328;DHT22;34136;51.022;7.082;2022-07-10T02:19:20;14.80;15.60
48328;DHT22;34136;51.022;7.082;2022-07-10T02:22:06;14.90;15.70
48328;DHT22;34136;51.022;7.082;2022-07-10T02:24:52;14.80;16.70
48328;DHT22;34136;51.022;7.082;2022-07-10T02:27:39;14.70;17.40
48328;DHT22;34136;51.022;7.082;2022-07-10T02:30:25;14.70;17.80
48328;DHT22;34136;51.022;7.082;2022-07-10T02:33:11;14.70;17.90
48328;DHT22;34136;51.022;7.082;2022-07-10T02:35:57;14.70;17.80
48328;DHT22;34136;51.022;7.082;2022-07-10T02:38:44;14.70;18.20
48328;DHT22;34136;51.022;7.082;2022-07-10T02:41:30;14.70;17.70
48328;DHT22;34136;51.022;7.082;2022-07-10T02:44:17;14.70;18.00
48328;DHT22;34136;51.022;7.082;2022-07-10T02:47:03;14.70;18.00
48328;DHT22;34136;51.022;7.082;2022-07-10T02:49:49;14.70;17.70
48328;DHT22;34136;51.022;7.082;2022-07-10T02:52:36;14.70;17.50
48328;DHT22;34136;51.022;7.082;2022-07-10T02:55:22;14.70;17.30
48328;DHT22;34136;51.022;7.082;2022-07-10T02:58:08;14.70;16.90
48328;DHT22;34136;51.022;7.082;2022-07-10T03:00:55;14.70;17.40
48328;DHT22;34136;51.022;7.082;2022-07-10T03:03:41;14.70;17.60
48328;DHT22;34136;51.022;7.082;2022-07-10T03:06:27;14.70;17.80
48328;DHT22;34136;51.022;7.082;2022-07-10T03:09:14;14.50;19.10
48328;DHT22;34136;51.022;7.082;2022-07-10T03:12:00;14.50;19.40
48328;DHT22;34136;51.022;7.082;2022-07-10T03:14:46;14.40;19.90
48328;DHT22;34136;51.022;7.082;2022-07-10T03:17:32;14.50;19.90
48328;DHT22;34136;51.022;7.082;2022-07-10T03:20:19;14.40;20.00
48328;DHT22;34136;51.022;7.082;2022-07-10T03:23:05;14.50;19.10
48328;DHT22;34136;51.022;7.082;2022-07-10T03:25:51;14.60;18.60
48328;DHT22;34136;51.022;7.082;2022-07-10T03:28:41;14.70;18.40
48328;DHT22;34136;51.022;7.082;2022-07-10T03:31:27;14.70;18.50
48328;DHT22;34136;51.022;7.082;2022-07-10T03:34:14;14.50;19.80
48328;DHT22;34136;51.022;7.082;2022-07-10T03:37:00;14.50;20.00
48328;DHT22;34136;51.022;7.082;2022-07-10T03:39:47;14.50;20.20
48328;DHT22;34136;51.022;7.082;2022-07-10T03:42:33;14.40;21.40
48328;DHT22;34136;51.022;7.082;2022-07-10T03:45:19;14.40;21.10
48328;DHT22;34136;51.022;7.082;2022-07-10T03:48:06;14.50;20.10
48328;DHT22;34136;51.022;7.082;2022-07-10T03:50:52;14.50;19.90
48328;DHT22;34136;51.022;7.082;2022-07-10T03:53:38;14.60;18.90
48328;DHT22;34136;51.022;7.082;2022-07-10T03:56:24;14.60;19.20
48328;DHT22;34136;51.022;7.082;2022-07-10T03:59:11;14.60;19.10
48328;DHT22;34136;51.022;7.082;2022-07-10T04:01:57;14.70;19.20
48328;DHT22;34136;51.022;7.082;2022-07-10T04:04:43;14.70;18.70
48328;DHT22;34136;51.022;7.082;2022-07-10T04:07:30;14.80;19.20
48328;DHT22;34136;51.022;7.082;2022-07-10T04:10:16;14.80;18.80
48328;DHT22;34136;51.022;7.082;2022-07-10T04:13:02;14.80;19.20
48328;DHT22;34136;51.022;7.082;2022-07-10T04:15:48;14.80;19.70
48328;DHT22;34136;51.022;7.082;2022-07-10T04:18:34;14.70;20.10
48328;DHT22;34136;51.022;7.082;2022-07-10T04:21:20;14.70;20.60
48328;DHT22;34136;51.022;7.082;2022-07-10T04:24:08;14.70;21.00
48328;DHT22;34136;51.022;7.082;2022-07-10T04:26:54;14.60;20.80
48328;DHT22;34136;51.022;7.082;2022-07-10T04:29:41;14.50;21.70
48328;DHT22;34136;51.022;7.082;2022-07-10T04:32:27;14.40;22.30
48328;DHT22;34136;51.022;7.082;2022-07-10T04:35:13;14.30;22.70
48328;DHT22;34136;51.022;7.082;2022-07-10T04:37:59;14.30;23.00
48328;DHT22;34136;51.022;7.082;2022-07-10T04:40:46;14.40;22.90
48328;DHT22;34136;51.022;7.082;2022-07-10T04:43:32;14.40;23.20
48328;DHT22;34136;51.022;7.082;2022-07-10T04:46:18;14.30;24.10
48328;DHT22;34136;51.022;7.082;2022-07-10T04:49:04;14.30;23.80
48328;DHT22;34136;51.022;7.082;2022-07-10T04:51:50;14.30;23.70
48328;DHT22;34136;51.022;7.082;2022-07-10T04:54:37;14.40;24.00
48328;DHT22;34136;51.022;7.082;2022-07-10T04:57:23;14.50;23.10
48328;DHT22;34136;51.022;7.082;2022-07-10T05:00:10;14.50;22.40
48328;DHT22;34136;51.022;7.082;2022-07-10T05:02:57;14.50;22.30
48328;DHT22;34136;51.022;7.082;2022-07-10T05:05:43;14.50;22.60
48328;DHT22;34136;51.022;7.082;2022-07-10T05:08:30;14.50;22.60
48328;DHT22;34136;51.022;7.082;2022-07-10T05:11:16;14.60;22.60
48328;DHT22;34136;51.022;7.082;2022-07-10T05:14:02;14.60;22.90
48328;DHT22;34136;51.022;7.082;2022-07-10T05:16:48;14.60;23.50
48328;DHT22;34136;51.022;7.082;2022-07-10T05:19:35;14.80;23.30
48328;DHT22;34136;51.022;7.082;2022-07-10T05:22:22;14.90;22.60
48328;DHT22;34136;51.022;7.082;2022-07-10T05:25:08;15.00;22.40
48328;DHT22;34136;51.022;7.082;2022-07-10T05:27:54;15.10;21.90
48328;DHT22;34136;51.022;7.082;2022-07-10T05:30:41;15.40;19.20
48328;DHT22;34136;51.022;7.082;2022-07-10T05:33:28;15.70;18.30
48328;DHT22;34136;51.022;7.082;2022-07-10T05:36:14;15.80;17.60
48328;DHT22;34136;51.022;7.082;2022-07-10T05:39:00;15.90;17.20
48328;DHT22;34136;51.022;7.082;2022-07-10T05:41:46;16.00;16.80
48328;DHT22;34136;51.022;7.082;2022-07-10T05:44:33;16.10;16.60
48328;DHT22;34136;51.022;7.082;2022-07-10T05:47:19;16.10;16.40
48328;DHT22;34136;51.022;7.082;2022-07-10T05:50:05;16.10;16.40
48328;DHT22;34136;51.022;7.082;2022-07-10T05:52:52;16.30;16.40
48328;DHT22;34136;51.022;7.082;2022-07-10T05:55:38;16.60;15.20
48328;DHT22;34136;51.022;7.082;2022-07-10T05:58:24;16.80;14.30
48328;DHT22;34136;51.022;7.082;2022-07-10T06:01:11;17.00;13.30
48328;DHT22;34136;51.022;7.082;2022-07-10T06:03:57;17.30;12.10
48328;DHT22;34136;51.022;7.082;2022-07-10T06:06:43;17.00;11.80
48328;DHT22;34136;51.022;7.082;2022-07-10T06:09:29;17.00;12.00
48328;DHT22;34136;51.022;7.082;2022-07-10T06:12:16;17.00;12.00
48328;DHT22;34136;51.022;7.082;2022-07-10T06:15:03;17.20;10.40
48328;DHT22;34136;51.022;7.082;2022-07-10T06:17:50;17.40;8.50
48328;DHT22;34136;51.022;7.082;2022-07-10T06:20:36;17.30;7.70
48328;DHT22;34136;51.022;7.082;2022-07-10T06:23:22;17.50;4.90
48328;DHT22;34136;51.022;7.082;2022-07-10T06:26:09;17.50;5.50
48328;DHT22;34136;51.022;7.082;2022-07-10T06:28:55;17.60;3.90
48328;DHT22;34136;51.022;7.082;2022-07-10T06:31:41;17.70;3.60
48328;DHT22;34136;51.022;7.082;2022-07-10T06:34:27;17.70;4.20
48328;DHT22;34136;51.022;7.082;2022-07-10T06:37:14;17.90;4.90
48328;DHT22;34136;51.022;7.082;2022-07-10T06:40:00;18.00;3.90
48328;DHT22;34136;51.022;7.082;2022-07-10T06:42:46;18.30;3.10
48328;DHT22;34136;51.022;7.082;2022-07-10T06:45:33;18.40;2.80
48328;DHT22;34136;51.022;7.082;2022-07-10T06:48:19;18.30;3.30
48328;DHT22;34136;51.022;7.082;2022-07-10T06:51:06;18.20;3.00
48328;DHT22;34136;51.022;7.082;2022-07-10T06:53:52;17.90;2.00
48328;DHT22;34136;51.022;7.082;2022-07-10T06:56:38;17.60;2.60
48328;DHT22;34136;51.022;7.082;2022-07-10T06:59:25;17.50;4.00
48328;DHT22;34136;51.022;7.082;2022-07-10T07:02:11;17.50;5.80
48328;DHT22;34136;51.022;7.082;2022-07-10T07:04:58;17.30;7.10
48328;DHT22;34136;51.022;7.082;2022-07-10T07:07:44;17.50;6.80
48328;DHT22;34136;51.022;7.082;2022-07-10T07:10:30;17.80;4.80
48328;DHT22;34136;51.022;7.082;2022-07-10T07:13:17;17.80;4.90
48328;DHT22;34136;51.022;7.082;2022-07-10T07:16:03;17.90;4.80
48328;DHT22;34136;51.022;7.082;2022-07-10T07:18:50;17.80;5.00
48328;DHT22;34136;51.022;7.082;2022-07-10T07:21:36;17.70;3.30
48328;DHT22;34136;51.022;7.082;2022-07-10T07:24:23;17.40;3.60
48328;DHT22;34136;51.022;7.082;2022-07-10T07:27:10;17.10;5.20
48328;DHT22;34136;51.022;7.082;2022-07-10T07:29:56;17.10;4.80
48328;DHT22;34136;51.022;7.082;2022-07-10T07:32:44;17.10;5.30
48328;DHT22;34136;51.022;7.082;2022-07-10T07:35:30;17.10;4.30
48328;DHT22;34136;51.022;7.082;2022-07-10T07:38:17;17.20;4.40
48328;DHT22;34136;51.022;7.082;2022-07-10T07:41:03;17.00;5.20
48328;DHT22;34136;51.022;7.082;2022-07-10T07:43:49;17.20;5.50
48328;DHT22;34136;51.022;7.082;2022-07-10T07:46:36;17.30;5.60
48328;DHT22;34136;51.022;7.082;2022-07-10T07:49:22;17.40;6.30
48328;DHT22;34136;51.022;7.082;2022-07-10T07:52:08;17.70;5.50
48328;DHT22;34136;51.022;7.082;2022-07-10T07:54:55;17.90;3.90
48328;DHT22;34136;51.022;7.082;2022-07-10T07:57:42;17.90;3.40
48328;DHT22;34136;51.022;7.082;2022-07-10T08:00:29;18.10;3.10
48328;DHT22;34136;51.022;7.082;2022-07-10T08:03:15;18.10;2.60
48328;DHT22;34136;51.022;7.082;2022-07-10T08:06:02;17.80;3.20
48328;DHT22;34136;51.022;7.082;2022-07-10T08:08:48;17.60;3.70
48328;DHT22;34136;51.022;7.082;2022-07-10T08:11:34;17.70;3.80
48328;DHT22;34136;51.022;7.082;2022-07-10T08:14:20;17.50;4.60
48328;DHT22;34136;51.022;7.082;2022-07-10T08:17:07;17.50;5.20
48328;DHT22;34136;51.022;7.082;2022-07-10T08:19:53;17.60;4.10
48328;DHT22;34136;51.022;7.082;2022-07-10T08:22:40;17.70;4.00
48328;DHT22;34136;51.022;7.082;2022-07-10T08:25:28;17.70;4.40
48328;DHT22;34136;51.022;7.082;2022-07-10T08:28:14;17.80;4.10
48328;DHT22;34136;51.022;7.082;2022-07-10T08:31:01;17.80;3.90
48328;DHT22;34136;51.022;7.082;2022-07-10T08:33:47;17.70;4.00
48328;DHT22;34136;51.022;7.082;2022-07-10T08:36:33;17.50;4.70
48328;DHT22;34136;51.022;7.082;2022-07-10T08:39:20;17.50;5.80
48328;DHT22;34136;51.022;7.082;2022-07-10T08:42:10;17.60;5.80
48328;DHT22;34136;51.022;7.082;2022-07-10T08:44:57;17.70;5.90
48328;DHT22;34136;51.022;7.082;2022-07-10T08:47:43;17.70;5.60
48328;DHT22;34136;51.022;7.082;2022-07-10T08:50:32;17.80;4.60
48328;DHT22;34136;51.022;7.082;2022-07-10T08:56:10;17.80;5.90
48328;DHT22;34136;51.022;7.082;2022-07-10T08:58:56;17.80;6.30
48328;DHT22;34136;51.022;7.082;2022-07-10T09:01:44;17.90;6.30
48328;DHT22;34136;51.022;7.082;2022-07-10T09:04:33;17.70;7.20
48328;DHT22;34136;51.022;7.082;2022-07-10T09:07:21;17.80;7.50
48328;DHT22;34136;51.022;7.082;2022-07-10T09:10:11;17.80;7.40
48328;DHT22;34136;51.022;7.082;2022-07-10T09:12:59;17.60;8.00
48328;DHT22;34136;51.022;7.082;2022-07-10T09:15:49;17.80;8.50
48328;DHT22;34136;51.022;7.082;2022-07-10T09:18:35;17.80;9.00
48328;DHT22;34136;51.022;7.082;2022-07-10T09:21:22;18.00;8.10
48328;DHT22;34136;51.022;7.082;2022-07-10T09:24:09;17.90;8.60
48328;DHT22;34136;51.022;7.082;2022-07-10T09:27:00;17.90;8.60
48328;DHT22;34136;51.022;7.082;2022-07-10T09:29:51;17.60;10.00
48328;DHT22;34136;51.022;7.082;2022-07-10T09:32:38;17.70;10.40
48328;DHT22;34136;51.022;7.082;2022-07-10T09:35:24;17.70;10.60
48328;DHT22;34136;51.022;7.082;2022-07-10T09:38:10;17.90;9.80
48328;DHT22;34136;51.022;7.082;2022-07-10T09:41:11;18.00;9.80
48328;DHT22;34136;51.022;7.082;2022-07-10T09:44:03;18.10;9.90
48328;DHT22;34136;51.022;7.082;2022-07-10T09:46:50;18.20;9.00
48328;DHT22;34136;51.022;7.082;2022-07-10T09:49:37;18.20;9.10
48328;DHT22;34136;51.022;7.082;2022-07-10T09:52:23;18.20;9.30
48328;DHT22;34136;51.022;7.082;2022-07-10T09:55:13;18.30;8.70
48328;DHT22;34136;51.022;7.082;2022-07-10T09:58:01;18.30;8.60
48328;DHT22;34136;51.022;7.082;2022-07-10T10:00:51;18.10;10.20
48328;DHT22;34136;51.022;7.082;2022-07-10T10:03:38;18.00;10.30
48328;DHT22;34136;51.022;7.082;2022-07-10T10:06:26;18.10;10.20
48328;DHT22;34136;51.022;7.082;2022-07-10T10:09:25;18.30;9.80
48328;DHT22;34136;51.022;7.082;2022-07-10T10:12:17;18.30;10.10
48328;DHT22;34136;51.022;7.082;2022-07-10T10:15:10;18.30;10.30
48328;DHT22;34136;51.022;7.082;2022-07-10T10:17:58;18.30;9.80
48328;DHT22;34136;51.022;7.082;2022-07-10T10:20:46;18.20;10.30
48328;DHT22;34136;51.022;7.082;2022-07-10T10:23:34;18.30;9.50
48328;DHT22;34136;51.022;7.082;2022-07-10T10:26:24;18.30;10.50
48328;DHT22;34136;51.022;7.082;2022-07-10T10:29:10;18.20;10.90
48328;DHT22;34136;51.022;7.082;2022-07-10T10:31:57;18.30;11.00
48328;DHT22;34136;51.022;7.082;2022-07-10T10:34:47;18.30;10.20
48328;DHT22;34136;51.022;7.082;2022-07-10T10:37:37;18.20;10.60
48328;DHT22;34136;51.022;7.082;2022-07-10T10:40:32;18.30;10.90
48328;DHT22;34136;51.022;7.082;2022-07-10T10:43:20;18.30;11.90
48328;DHT22;34136;51.022;7.082;2022-07-10T10:46:23;18.30;11.80
48328;DHT22;34136;51.022;7.082;2022-07-10T10:49:10;18.30;13.40
48328;DHT22;34136;51.022;7.082;2022-07-10T10:57:43;17.80;16.40
48328;DHT22;34136;51.022;7.082;2022-07-10T11:00:32;17.70;17.90
48328;DHT22;34136;51.022;7.082;2022-07-10T11:03:21;17.70;17.50
48328;DHT22;34136;51.022;7.082;2022-07-10T11:06:07;17.90;16.80
48328;DHT22;34136;51.022;7.082;2022-07-10T11:08:59;18.10;15.00
48328;DHT22;34136;51.022;7.082;2022-07-10T11:11:57;18.30;15.00
48328;DHT22;34136;51.022;7.082;2022-07-10T11:14:47;18.40;13.70
48328;DHT22;34136;51.022;7.082;2022-07-10T11:17:34;18.30;14.40
48328;DHT22;34136;51.022;7.082;2022-07-10T11:20:20;18.30;14.30
48328;DHT22;34136;51.022;7.082;2022-07-10T11:26:18;18.50;13.00
48328;DHT22;34136;51.022;7.082;2022-07-10T11:29:07;18.50;13.40
48328;DHT22;34136;51.022;7.082;2022-07-10T11:31:54;18.50;12.60
48328;DHT22;34136;51.022;7.082;2022-07-10T11:34:40;18.60;12.70
48328;DHT22;34136;51.022;7.082;2022-07-10T11:37:27;18.70;12.60
48328;DHT22;34136;51.022;7.082;2022-07-10T11:40:13;18.50;12.60
48328;DHT22;34136;51.022;7.082;2022-07-10T11:43:00;18.60;12.00
48328;DHT22;34136;51.022;7.082;2022-07-10T11:45:46;18.60;12.50
48328;DHT22;34136;51.022;7.082;2022-07-10T11:48:38;18.60;12.20
48328;DHT22;34136;51.022;7.082;2022-07-10T11:51:31;18.40;13.50
48328;DHT22;34136;51.022;7.082;2022-07-10T11:54:18;18.50;12.70
48328;DHT22;34136;51.022;7.082;2022-07-10T11:57:06;18.70;12.90
48328;DHT22;34136;51.022;7.082;2022-07-10T11:59:52;18.80;13.30
48328;DHT22;34136;51.022;7.082;2022-07-10T12:02:38;18.70;13.20
48328;DHT22;34136;51.022;7.082;2022-07-10T12:05:37;18.60;13.90
48328;DHT22;34136;51.022;7.082;2022-07-10T12:08:23;18.60;13.80
48328;DHT22;34136;51.022;7.082;2022-07-10T12:11:17;18.50;14.50
48328;DHT22;34136;51.022;7.082;2022-07-10T12:14:17;18.40;15.00
48328;DHT22;34136;51.022;7.082;2022-07-10T12:17:11;18.40;15.30
48328;DHT22;34136;51.022;7.082;2022-07-10T12:19:57;18.50;14.80
48328;DHT22;34136;51.022;7.082;2022-07-10T12:22:45;18.70;14.60
48328;DHT22;34136;51.022;7.082;2022-07-10T12:25:31;18.60;14.90
48328;DHT22;34136;51.022;7.082;2022-07-10T12:28:18;18.60;16.40
48328;DHT22;34136;51.022;7.082;2022-07-10T12:31:04;18.70;16.90
48328;DHT22;34136;51.022;7.082;2022-07-10T12:33:52;18.50;23.60
48328;DHT22;34136;51.022;7.082;2022-07-10T12:36:51;18.40;27.50
48328;DHT22;34136;51.022;7.082;2022-07-10T12:39:46;18.50;27.40
48328;DHT22;34136;51.022;7.082;2022-07-10T12:42:33;18.30;25.50
48328;DHT22;34136;51.022;7.082;2022-07-10T12:45:19;18.10;28.10
48328;DHT22;34136;51.022;7.082;2022-07-10T12:48:05;18.10;28.80
48328;DHT22;34136;51.022;7.082;2022-07-10T12:50:52;18.00;29.90
48328;DHT22;34136;51.022;7.082;2022-07-10T12:53:45;18.20;33.30
48328;DHT22;34136;51.022;7.082;2022-07-10T12:56:35;18.00;29.70
48328;DHT22;34136;51.022;7.082;2022-07-10T12:59:21;18.30;29.80
48328;DHT22;34136;51.022;7.082;2022-07-10T13:02:21;18.40;25.70
48328;DHT22;34136;51.022;7.082;2022-07-10T13:05:07;18.30;29.20
48328;DHT22;34136;51.022;7.082;2022-07-10T13:08:05;18.30;28.30
48328;DHT22;34136;51.022;7.082;2022-07-10T13:10:53;18.20;28.80
48328;DHT22;34136;51.022;7.082;2022-07-10T13:13:39;18.30;29.20
48328;DHT22;34136;51.022;7.082;2022-07-10T13:16:25;18.30;28.50
48328;DHT22;34136;51.022;7.082;2022-07-10T13:19:12;18.40;29.80
48328;DHT22;34136;51.022;7.082;2022-07-10T13:21:58;18.30;26.60
48328;DHT22;34136;51.022;7.082;2022-07-10T13:24:44;18.30;27.60
48328;DHT22;34136;51.022;7.082;2022-07-10T13:27:31;18.10;30.50
48328;DHT22;34136;51.022;7.082;2022-07-10T13:30:17;18.00;32.90
48328;DHT22;34136;51.022;7.082;2022-07-10T13:33:04;18.00;33.50
48328;DHT22;34136;51.022;7.082;2022-07-10T13:35:50;18.00;33.90
48328;DHT22;34136;51.022;7.082;2022-07-10T13:38:37;18.10;33.40
48328;DHT22;34136;51.022;7.082;2022-07-10T13:41:23;18.30;32.20
48328;DHT22;34136;51.022;7.082;2022-07-10T13:44:10;18.50;30.90
48328;DHT22;34136;51.022;7.082;2022-07-10T13:46:56;18.30;30.80
48328;DHT22;34136;51.022;7.082;2022-07-10T13:49:42;18.30;29.40
48328;DHT22;34136;51.022;7.082;2022-07-10T13:52:29;18.30;30.70
48328;DHT22;34136;51.022;7.082;2022-07-10T13:55:15;18.50;28.80
48328;DHT22;34136;51.022;7.082;2022-07-10T13:58:02;18.50;28.30
48328;DHT22;34136;51.022;7.082;2022-07-10T14:00:48;18.50;29.80
48328;DHT22;34136;51.022;7.082;2022-07-10T14:03:34;18.70;26.10
48328;DHT22;34136;51.022;7.082;2022-07-10T14:06:21;18.90;27.40
48328;DHT22;34136;51.022;7.082;2022-07-10T14:09:07;19.00;28.10
48328;DHT22;34136;51.022;7.082;2022-07-10T14:11:54;19.40;26.30
48328;DHT22;34136;51.022;7.082;2022-07-10T14:14:40;19.60;23.00
48328;DHT22;34136;51.022;7.082;2022-07-10T14:17:27;19.70;21.40
48328;DHT22;34136;51.022;7.082;2022-07-10T14:20:13;19.60;23.60
48328;DHT22;34136;51.022;7.082;2022-07-10T14:22:59;19.60;22.10
48328;DHT22;34136;51.022;7.082;2022-07-10T14:25:46;19.60;20.60
48328;DHT22;34136;51.022;7.082;2022-07-10T14:28:32;19.60;20.40
48328;DHT22;34136;51.022;7.082;2022-07-10T14:31:19;19.70;16.70
48328;DHT22;34136;51.022;7.082;2022-07-10T14:34:05;19.80;19.30
48328;DHT22;34136;51.022;7.082;2022-07-10T14:36:51;19.90;20.40
48328;DHT22;34136;51.022;7.082;2022-07-10T14:39:38;20.00;19.20
48328;DHT22;34136;51.022;7.082;2022-07-10T14:42:24;20.10;18.70
48328;DHT22;34136;51.022;7.082;2022-07-10T14:45:10;20.20;17.50
48328;DHT22;34136;51.022;7.082;2022-07-10T14:47:57;20.40;17.90
48328;DHT22;34136;51.022;7.082;2022-07-10T14:50:43;20.50;15.80
48328;DHT22;34136;51.022;7.082;2022-07-10T14:53:29;20.20;17.20
48328;DHT22;34136;51.022;7.082;2022-07-10T14:56:15;20.40;17.60
48328;DHT22;34136;51.022;7.082;2022-07-10T14:59:02;20.50;17.10
48328;DHT22;34136;51.022;7.082;2022-07-10T15:01:48;20.50;16.80
48328;DHT22;34136;51.022;7.082;2022-07-10T15:04:34;20.20;16.70
48328;DHT22;34136;51.022;7.082;2022-07-10T15:07:20;20.40;16.80
48328;DHT22;34136;51.022;7.082;2022-07-10T15:10:07;20.30;17.20
48328;DHT22;34136;51.022;7.082;2022-07-10T15:12:53;20.30;17.60
48328;DHT22;34136;51.022;7.082;2022-07-10T15:15:40;20.20;16.70
48328;DHT22;34136;51.022;7.082;2022-07-10T15:18:26;20.10;17.60
48328;DHT22;34136;51.022;7.082;2022-07-10T15:21:13;20.20;17.30
48328;DHT22;34136;51.022;7.082;2022-07-10T15:23:59;20.30;16.70
48328;DHT22;34136;51.022;7.082;2022-07-10T15:26:45;20.40;16.90
48328;DHT22;34136;51.022;7.082;2022-07-10T15:29:32;20.50;16.50
48328;DHT22;34136;51.022;7.082;2022-07-10T15:32:18;20.50;16.80
48328;DHT22;34136;51.022;7.082;2022-07-10T15:35:05;20.40;16.30
48328;DHT22;34136;51.022;7.082;2022-07-10T15:37:51;20.20;17.70
48328;DHT22;34136;51.022;7.082;2022-07-10T15:40:38;20.20;18.80
48328;DHT22;34136;51.022;7.082;2022-07-10T15:43:25;20.30;18.40
48328;DHT22;34136;51.022;7.082;2022-07-10T15:46:11;20.30;18.70
48328;DHT22;34136;51.022;7.082;2022-07-10T15:48:58;20.50;17.70
48328;DHT22;34136;51.022;7.082;2022-07-10T15:51:44;20.50;17.20
48328;DHT22;34136;51.022;7.082;2022-07-10T15:54:30;20.40;18.80
48328;DHT22;34136;51.022;7.082;2022-07-10T15:57:16;20.40;17.20
48328;DHT22;34136;51.022;7.082;2022-07-10T16:00:05;20.60;16.80
48328;DHT22;34136;51.022;7.082;2022-07-10T16:02:52;20.40;17.70
48328;DHT22;34136;51.022;7.082;2022-07-10T16:05:38;20.50;18.40
48328;DHT22;34136;51.022;7.082;2022-07-10T16:08:25;20.60;16.50
48328;DHT22;34136;51.022;7.082;2022-07-10T16:11:11;20.80;15.30
48328;DHT22;34136;51.022;7.082;2022-07-10T16:13:57;20.70;14.70
48328;DHT22;34136;51.022;7.082;2022-07-10T16:16:43;20.60;15.60
48328;DHT22;34136;51.022;7.082;2022-07-10T16:19:30;20.60;16.20
48328;DHT22;34136;51.022;7.082;2022-07-10T16:22:16;20.70;15.10
48328;DHT22;34136;51.022;7.082;2022-07-10T16:25:02;20.70;13.60
48328;DHT22;34136;51.022;7.082;2022-07-10T16:27:49;20.90;11.40
48328;DHT22;34136;51.022;7.082;2022-07-10T16:30:35;21.00;11.30
48328;DHT22;34136;51.022;7.082;2022-07-10T16:33:31;21.10;11.60
48328;DHT22;34136;51.022;7.082;2022-07-10T16:36:17;21.00;10.10
48328;DHT22;34136;51.022;7.082;2022-07-10T16:39:04;20.90;11.40
48328;DHT22;34136;51.022;7.082;2022-07-10T16:41:51;20.70;13.50
48328;DHT22;34136;51.022;7.082;2022-07-10T16:44:37;20.70;13.80
48328;DHT22;34136;51.022;7.082;2022-07-10T16:47:23;20.80;14.10
48328;DHT22;34136;51.022;7.082;2022-07-10T16:50:10;20.80;14.00
48328;DHT22;34136;51.022;7.082;2022-07-10T16:52:56;20.80;12.60
48328;DHT22;34136;51.022;7.082;2022-07-10T16:55:43;20.90;14.00
48328;DHT22;34136;51.022;7.082;2022-07-10T16:58:29;20.80;14.00
48328;DHT22;34136;51.022;7.082;2022-07-10T17:01:16;20.80;14.60
48328;DHT22;34136;51.022;7.082;2022-07-10T17:04:02;20.90;14.20
48328;DHT22;34136;51.022;7.082;2022-07-10T17:06:48;20.80;14.20
48328;DHT22;34136;51.022;7.082;2022-07-10T17:09:35;20.80;15.10
48328;DHT22;34136;51.022;7.082;2022-07-10T17:12:22;20.50;13.90
48328;DHT22;34136;51.022;7.082;2022-07-10T17:15:09;20.50;14.50
48328;DHT22;34136;51.022;7.082;2022-07-10T17:17:55;20.60;15.30
48328;DHT22;34136;51.022;7.082;2022-07-10T17:20:41;20.50;13.90
48328;DHT22;34136;51.022;7.082;2022-07-10T17:23:27;20.50;13.00
48328;DHT22;34136;51.022;7.082;2022-07-10T17:26:14;20.60;11.70
48328;DHT22;34136;51.022;7.082;2022-07-10T17:29:00;20.50;12.40
48328;DHT22;34136;51.022;7.082;2022-07-10T17:31:46;20.50;12.30
48328;DHT22;34136;51.022;7.082;2022-07-10T17:34:33;20.40;11.40
48328;DHT22;34136;51.022;7.082;2022-07-10T17:37:19;20.20;12.60
48328;DHT22;34136;51.022;7.082;2022-07-10T17:40:06;20.30;12.40
48328;DHT22;34136;51.022;7.082;2022-07-10T17:42:53;20.50;11.40
48328;DHT22;34136;51.022;7.082;2022-07-10T17:45:39;20.50;10.80
48328;DHT22;34136;51.022;7.082;2022-07-10T17:48:25;20.40;11.40
48328;DHT22;34136;51.022;7.082;2022-07-10T17:51:12;20.40;11.50